createdAt,value
2022-10-17T00:00:39.985Z,100731.73
2022-10-17T00:06:06.744Z,100738.97
2022-10-17T00:11:17.834Z,100736.30
2022-10-17T00:16:32.308Z,100741.63
2022-10-17T00:21:34.184Z,100746.27
2022-10-17T00:26:36.165Z,100748.70
2022-10-17T00:31:37.985Z,100744.85
2022-10-17T00:36:39.919Z,100743.92
2022-10-17T00:41:41.795Z,100743.77
2022-10-17T00:46:43.673Z,100743.66
2022-10-17T00:51:58.759Z,100741.27
2022-10-17T00:57:01.253Z,100759.19
2022-10-17T01:02:06.406Z,100753.45
2022-10-17T01:07:09.511Z,100743.64
2022-10-17T01:12:14.154Z,100745.69
2022-10-17T01:17:25.043Z,100742.65
2022-10-17T01:22:36.854Z,100739.06
2022-10-17T01:27:51.325Z,100743.02
2022-10-17T01:33:21.364Z,100752.14
2022-10-17T01:38:31.739Z,100762.16
2022-10-17T01:43:59.434Z,100758.89
2022-10-17T01:49:04.472Z,100772.25
2022-10-17T01:54:12.596Z,100786.86
2022-10-17T01:59:19.593Z,100791.84
2022-10-17T02:04:22.084Z,100806.41
2022-10-17T02:09:26.420Z,100818.27
2022-10-17T02:14:47.035Z,100817.37
2022-10-17T02:20:30.386Z,100815.54
2022-10-17T02:25:44.347Z,100821.23
2022-10-17T02:30:57.795Z,100825.39
2022-10-17T02:36:07.046Z,100833.08
2022-10-17T02:41:12.313Z,100828.94
2022-10-17T02:46:22.677Z,100826.01
2022-10-17T02:51:59.475Z,100829.98
2022-10-17T02:57:10.160Z,100837.21
2022-10-17T03:02:12.343Z,100847.28
2022-10-17T03:07:14.218Z,100861.34
2022-10-17T03:12:15.995Z,100857.21
2022-10-17T03:17:17.870Z,100865.37
2022-10-17T03:22:19.750Z,100870.61
2022-10-17T03:27:21.627Z,100866.19
2022-10-17T03:32:23.501Z,100870.56
2022-10-17T03:37:25.485Z,100869.02
2022-10-17T03:42:27.361Z,100862.18
2022-10-17T03:47:29.518Z,100874.14
2022-10-17T03:52:31.526Z,100883.65
2022-10-17T03:57:35.763Z,100888.09
2022-10-17T04:02:37.427Z,100890.16
2022-10-17T04:07:39.306Z,100885.15
2022-10-17T04:12:41.287Z,100886.76
2022-10-17T04:17:43.162Z,100891.14
2022-10-17T04:22:45.040Z,100900.42
2022-10-17T04:27:48.554Z,100910.86
2022-10-17T04:32:50.535Z,100909.67
2022-10-17T04:37:52.410Z,100901.73
2022-10-17T04:42:54.289Z,100903.92
2022-10-17T04:47:56.985Z,100909.61
2022-10-17T04:52:59.581Z,100920.23
2022-10-17T04:58:01.455Z,100933.14
2022-10-17T05:03:03.537Z,100929.08
2022-10-17T05:08:06.388Z,100931.95
2022-10-17T05:13:09.652Z,100928.88
2022-10-17T05:18:11.661Z,100926.27
2022-10-17T05:23:13.503Z,100935.48
2022-10-17T05:28:15.382Z,100936.03
2022-10-17T05:33:17.259Z,100936.27
2022-10-17T05:38:19.136Z,100935.92
2022-10-17T05:43:21.118Z,100944.08
2022-10-17T05:48:23.721Z,100939.52
2022-10-17T05:53:25.892Z,100946.74
2022-10-17T06:03:50.543Z,100953.89
2022-10-17T06:08:52.517Z,100974.34
2022-10-17T06:13:54.598Z,100976.49
2022-10-17T06:18:56.478Z,100975.63
2022-10-17T06:23:58.355Z,100988.17
2022-10-17T06:29:00.390Z,100989.00
2022-10-17T06:34:02.321Z,100983.67
2022-10-17T06:39:04.191Z,100985.66
2022-10-17T06:44:10.801Z,100984.23
2022-10-17T06:49:12.757Z,100992.94
2022-10-17T06:54:14.940Z,101004.73
2022-10-17T06:59:16.921Z,101016.27
2022-10-17T07:04:19.309Z,101020.86
2022-10-17T07:09:22.421Z,101029.33
2022-10-17T07:14:31.358Z,101037.86
2022-10-17T07:19:33.236Z,101035.44
2022-10-17T07:24:35.319Z,101039.79
2022-10-17T07:29:37.400Z,101039.77
2022-10-17T07:34:39.279Z,101042.02
2022-10-17T07:39:41.163Z,101046.17
2022-10-17T07:44:45.694Z,101043.35
2022-10-17T07:49:47.569Z,101046.17
2022-10-17T07:54:49.857Z,101051.85
2022-10-17T07:59:52.655Z,101056.09
2022-10-17T08:04:54.739Z,101057.74
2022-10-17T08:09:56.947Z,101072.84
2022-10-17T08:14:59.004Z,101070.34
2022-10-17T08:20:00.984Z,101072.04
2022-10-17T08:25:02.970Z,101065.75
2022-10-17T08:30:05.354Z,101059.71
2022-10-17T08:35:07.843Z,101057.11
2022-10-17T08:40:20.575Z,101061.33
2022-10-17T08:45:48.973Z,101074.73
2022-10-17T08:50:55.765Z,101077.73
2022-10-17T08:56:04.576Z,101066.47
2022-10-17T09:01:36.804Z,101061.27
2022-10-17T09:06:53.418Z,101062.84
2022-10-17T09:12:18.641Z,101058.02
2022-10-17T09:17:38.848Z,101052.82
2022-10-17T09:23:06.839Z,101058.04
2022-10-17T09:28:30.364Z,101051.20
2022-10-17T09:33:59.450Z,101047.06
2022-10-17T09:39:11.964Z,101046.76
2022-10-17T09:44:22.090Z,101052.98
2022-10-17T09:49:36.197Z,101052.81
2022-10-17T09:54:53.695Z,101051.05
2022-10-17T10:00:02.482Z,101058.69
2022-10-17T10:05:20.991Z,101058.41
2022-10-17T10:10:27.853Z,101053.45
2022-10-17T10:15:37.353Z,101041.13
2022-10-17T10:20:40.301Z,101033.95
2022-10-17T10:25:55.905Z,101028.64
2022-10-17T10:31:02.078Z,101019.64
2022-10-17T10:36:07.406Z,101022.11
2022-10-17T10:41:11.361Z,101021.79
2022-10-17T10:46:31.465Z,101025.58
2022-10-17T10:51:52.080Z,101019.23
2022-10-17T10:56:57.852Z,101021.41
2022-10-17T11:01:59.757Z,101021.39
2022-10-17T11:07:11.230Z,101022.40
2022-10-17T11:12:25.808Z,101022.09
2022-10-17T11:17:49.493Z,101019.23
2022-10-17T11:22:57.412Z,101017.20
2022-10-17T11:28:04.660Z,101017.36
2022-10-17T11:33:12.123Z,101012.20
2022-10-17T11:38:20.861Z,101010.86
2022-10-17T11:43:32.059Z,101000.52
2022-10-17T11:48:45.608Z,100991.06
2022-10-17T11:53:50.046Z,100987.05
2022-10-17T11:59:15.477Z,100978.65
2022-10-17T12:04:29.986Z,100977.27
2022-10-17T12:09:45.754Z,100978.21
2022-10-17T12:14:48.038Z,100973.61
2022-10-17T12:19:49.916Z,100968.69
2022-10-17T12:24:58.187Z,100965.77
2022-10-17T12:30:24.495Z,100959.88
2022-10-17T12:35:28.111Z,100957.69
2022-10-17T12:40:36.134Z,100954.58
2022-10-17T12:45:45.895Z,100954.77
2022-10-17T12:56:45.683Z,100948.89
2022-10-17T13:01:52.913Z,100948.92
2022-10-17T13:06:58.682Z,100952.89
2022-10-17T13:12:04.496Z,100950.83
2022-10-17T13:17:22.666Z,100946.00
2022-10-17T13:22:28.938Z,100948.94
2022-10-17T13:27:33.993Z,100947.59
2022-10-17T13:32:38.942Z,100943.92
2022-10-17T13:37:43.381Z,100942.55
2022-10-17T13:42:46.587Z,100934.69
2022-10-17T13:47:48.670Z,100914.52
2022-10-17T13:53:15.535Z,100897.70
2022-10-17T13:58:18.536Z,100884.73
2022-10-17T14:03:31.828Z,100887.92
2022-10-17T14:48:23.230Z,100876.80
2022-10-17T14:53:30.221Z,100879.15
2022-10-17T14:58:34.129Z,100877.30
2022-10-17T15:03:37.426Z,100868.82
2022-10-17T15:08:40.722Z,100856.13
2022-10-17T15:13:45.683Z,100867.64
2022-10-17T15:18:49.826Z,100860.88
2022-10-17T15:23:53.240Z,100855.86
2022-10-17T15:28:56.385Z,100847.41
2022-10-17T15:33:59.657Z,100848.69
2022-10-17T15:39:03.583Z,100851.84
2022-10-17T15:44:06.997Z,100852.61
2022-10-17T15:49:13.815Z,100852.93
2022-10-17T15:54:17.000Z,100851.15
2022-10-17T15:59:24.606Z,100846.23
2022-10-17T16:04:29.453Z,100842.27
2022-10-17T16:09:33.688Z,100839.80
2022-10-17T16:14:36.794Z,100837.01
2022-10-17T16:19:40.105Z,100835.08
2022-10-17T16:24:43.210Z,100833.99
2022-10-17T16:29:46.317Z,100835.08
2022-10-17T16:34:49.524Z,100829.86
2022-10-17T16:39:53.966Z,100823.47
2022-10-17T16:44:57.174Z,100817.29
2022-10-17T16:50:00.480Z,100815.83
2022-10-17T16:55:03.791Z,100809.81
2022-10-17T17:00:08.233Z,100803.73
2022-10-17T17:05:11.964Z,100796.02
2022-10-17T17:10:15.260Z,100793.04
2022-10-17T17:15:18.467Z,100793.34
2022-10-17T17:20:21.579Z,100786.61
2022-10-17T17:25:25.088Z,100776.30
2022-10-17T17:30:29.937Z,100774.79
2022-10-17T17:35:33.044Z,100773.14
2022-10-17T17:40:36.351Z,100773.04
2022-10-17T17:45:39.868Z,100766.64
2022-10-17T17:50:44.479Z,100764.60
2022-10-17T17:55:47.719Z,100763.82
2022-10-17T18:00:50.944Z,100765.03
2022-10-17T18:05:54.552Z,100761.89
2022-10-17T18:10:58.982Z,100752.16
2022-10-17T18:16:03.009Z,100742.13
2022-10-17T18:21:06.629Z,100747.05
2022-10-17T18:26:10.862Z,100748.83
2022-10-17T18:31:19.163Z,100747.75
2022-10-17T18:36:22.910Z,100744.75
2022-10-17T18:41:27.142Z,100742.38
2022-10-17T18:46:36.296Z,100741.65
2022-10-17T18:51:40.729Z,100739.25
2022-10-17T18:56:45.197Z,100736.89
2022-10-17T19:01:48.569Z,100735.05
2022-10-17T19:06:51.991Z,100732.29
2022-10-17T19:11:55.608Z,100717.47
2022-10-17T19:17:00.151Z,100715.93
2022-10-17T19:22:03.869Z,100707.50
2022-10-17T19:27:07.181Z,100699.44
2022-10-17T19:32:15.725Z,100694.71
2022-10-17T19:37:21.383Z,100692.80
2022-10-17T19:42:24.587Z,100697.75
2022-10-17T19:47:27.897Z,100700.38
2022-10-17T19:52:31.271Z,100702.55
2022-10-17T19:57:36.671Z,100695.10
2022-10-17T20:02:39.879Z,100690.05
2022-10-17T20:07:43.086Z,100686.86
2022-10-17T20:12:46.603Z,100681.09
2022-10-17T21:03:17.765Z,100665.01
2022-10-17T21:08:19.642Z,100667.65
2022-10-17T21:13:21.522Z,100673.02
2022-10-17T21:18:23.400Z,100662.52
2022-10-17T21:23:25.281Z,100663.61
2022-10-17T21:28:27.173Z,100672.23
2022-10-17T21:33:29.026Z,100670.54
2022-10-17T21:38:31.109Z,100670.89
2022-10-17T21:43:34.216Z,100665.44
2022-10-17T21:48:35.996Z,100663.77
2022-10-17T21:53:38.276Z,100664.84
2022-10-17T21:58:40.878Z,100662.65
2022-10-17T22:03:46.729Z,100655.84
2022-10-17T22:08:49.338Z,100648.79
2022-10-17T22:14:00.752Z,100654.84
2022-10-17T22:19:06.468Z,100656.92
2022-10-17T22:24:12.339Z,100650.63
2022-10-17T22:29:15.281Z,100647.44
2022-10-17T22:34:18.190Z,100649.12
2022-10-17T22:39:20.058Z,100648.50
2022-10-17T22:44:21.871Z,100641.53
2022-10-17T22:49:23.707Z,100643.64
2022-10-17T22:54:25.583Z,100641.73
2022-10-17T22:59:27.461Z,100640.50
2022-10-17T23:04:29.339Z,100642.47
2022-10-17T23:09:31.217Z,100641.49
2022-10-17T23:14:36.965Z,100638.42
2022-10-17T23:19:39.782Z,100639.59
2022-10-17T23:24:41.558Z,100635.43
2022-10-17T23:29:43.435Z,100637.33
2022-10-17T23:34:45.313Z,100633.30
2022-10-17T23:39:47.292Z,100633.14
2022-10-17T23:44:49.273Z,100628.37
2022-10-17T23:49:51.155Z,100620.15
2022-10-17T23:54:53.742Z,100620.73
2022-10-17T23:59:55.727Z,100625.30
